createdAt,value
2022-11-29T00:07:16.792Z,41.8
2022-11-29T00:37:17.087Z,42.1
2022-11-29T01:07:19.626Z,40.2
2022-11-29T01:37:17.352Z,42.1
2022-11-29T02:07:17.515Z,36
2022-11-29T02:37:26.463Z,32.7
2022-11-29T03:07:23.914Z,30.9
2022-11-29T03:37:20.114Z,22.9
2022-11-29T04:07:28.153Z,23.2
2022-11-29T04:37:28.356Z,20.7
2022-11-29T05:07:20.865Z,17.3
2022-11-29T05:37:22.659Z,16.1
2022-11-29T06:07:18.586Z,14.3
2022-11-29T06:37:19.919Z,11.6
2022-11-29T07:07:18.876Z,11.6
2022-11-29T07:37:25.077Z,11.5
2022-11-29T08:07:30.723Z,10.6
2022-11-29T08:37:14.958Z,12.2
2022-11-29T09:07:16.433Z,10.2
2022-11-29T09:37:14.371Z,11.2
2022-11-29T10:07:21.242Z,10.6
2022-11-29T10:37:18.202Z,12.1
2022-11-29T11:07:49.816Z,13.3
2022-11-29T11:37:25.082Z,16
2022-11-29T12:07:18.200Z,13.1
2022-11-29T12:37:16.917Z,12.3
2022-11-29T13:07:20.452Z,11.6
2022-11-29T13:37:18.880Z,10
2022-11-29T14:07:18.336Z,11.9
2022-11-29T14:37:23.070Z,8.3
2022-11-29T15:07:19.470Z,8.3
2022-11-29T15:37:24.632Z,9.4
2022-11-29T16:07:16.521Z,8.2
2022-11-29T16:37:21.320Z,6.6
2022-11-29T17:07:20.754Z,7.1
2022-11-29T17:37:16.951Z,5.9
2022-11-29T18:07:17.027Z,5
2022-11-29T18:37:38.954Z,7.1
2022-11-29T19:07:17.648Z,4.9
2022-11-29T19:37:20.052Z,7.3
2022-11-29T20:07:17.902Z,6
2022-11-29T20:37:28.012Z,6.9
2022-11-29T21:07:20.986Z,6.6
2022-11-29T21:37:19.323Z,8
2022-11-29T22:07:18.833Z,6.5
2022-11-29T22:37:18.809Z,6.3
2022-11-29T23:07:18.984Z,9.4
2022-11-29T23:37:19.171Z,9
